Terminal Aerodrome Forecast
Issued by NWS

Home | Current Version | Previous Version | Text Only | Print | Product List | Glossary On
Versions: 1 2 3 4 5 6 7 8 9 10 11 12 13 14 15 16 17
000
FTUS41 KBTV 230500
TAFMSS
TAF
KMSS 230522Z 2306/2406 23007KT P6SM SCT050
     FM230900 24010G16KT P6SM BKN045
     FM232100 25006KT P6SM SCT050=

USA.gov is the U.S. government's official web portal to all federal, state and local government web resources and services.